sensor_id;sensor_type;location;lat;lon;timestamp;P1;durP1;ratioP1;P2;durP2;ratioP2
4521;SDS011;2273;48.464;11.926;2022-07-29T00:00:09;5.50;;;4.50;;
4521;SDS011;2273;48.464;11.926;2022-07-29T00:02:36;8.33;;;4.80;;
4521;SDS011;2273;48.464;11.926;2022-07-29T00:05:02;8.17;;;4.70;;
4521;SDS011;2273;48.464;11.926;2022-07-29T00:07:28;4.90;;;4.40;;
4521;SDS011;2273;48.464;11.926;2022-07-29T00:09:54;13.73;;;4.60;;
4521;SDS011;2273;48.464;11.926;2022-07-29T00:12:20;6.73;;;5.60;;
4521;SDS011;2273;48.464;11.926;2022-07-29T00:14:46;8.63;;;4.60;;
4521;SDS011;2273;48.464;11.926;2022-07-29T00:17:12;7.10;;;4.60;;
4521;SDS011;2273;48.464;11.926;2022-07-29T00:19:37;7.10;;;4.97;;
4521;SDS011;2273;48.464;11.926;2022-07-29T00:22:02;5.20;;;4.70;;
4521;SDS011;2273;48.464;11.926;2022-07-29T00:24:28;6.77;;;5.17;;
4521;SDS011;2273;48.464;11.926;2022-07-29T00:26:53;4.93;;;4.43;;
4521;SDS011;2273;48.464;11.926;2022-07-29T00:29:19;8.93;;;5.00;;
4521;SDS011;2273;48.464;11.926;2022-07-29T00:31:44;12.20;;;5.03;;
4521;SDS011;2273;48.464;11.926;2022-07-29T00:34:10;10.10;;;4.97;;
4521;SDS011;2273;48.464;11.926;2022-07-29T00:36:56;8.73;;;5.00;;
4521;SDS011;2273;48.464;11.926;2022-07-29T00:39:22;11.00;;;4.67;;
4521;SDS011;2273;48.464;11.926;2022-07-29T00:41:47;7.37;;;4.73;;
4521;SDS011;2273;48.464;11.926;2022-07-29T00:44:13;5.70;;;3.90;;
4521;SDS011;2273;48.464;11.926;2022-07-29T00:46:39;11.10;;;4.80;;
4521;SDS011;2273;48.464;11.926;2022-07-29T00:49:04;11.33;;;5.30;;
4521;SDS011;2273;48.464;11.926;2022-07-29T00:51:32;7.53;;;4.43;;
4521;SDS011;2273;48.464;11.926;2022-07-29T00:53:58;8.23;;;4.87;;
4521;SDS011;2273;48.464;11.926;2022-07-29T00:56:23;5.80;;;5.13;;
4521;SDS011;2273;48.464;11.926;2022-07-29T00:58:49;4.37;;;3.97;;
4521;SDS011;2273;48.464;11.926;2022-07-29T01:01:15;6.37;;;4.63;;
4521;SDS011;2273;48.464;11.926;2022-07-29T01:03:41;13.50;;;4.47;;
4521;SDS011;2273;48.464;11.926;2022-07-29T01:06:06;6.03;;;4.70;;
4521;SDS011;2273;48.464;11.926;2022-07-29T01:08:32;7.90;;;4.23;;
4521;SDS011;2273;48.464;11.926;2022-07-29T01:10:58;9.50;;;4.40;;
4521;SDS011;2273;48.464;11.926;2022-07-29T01:13:24;6.90;;;3.80;;
4521;SDS011;2273;48.464;11.926;2022-07-29T01:15:54;5.43;;;4.20;;
4521;SDS011;2273;48.464;11.926;2022-07-29T01:18:28;3.97;;;3.47;;
4521;SDS011;2273;48.464;11.926;2022-07-29T01:29:11;4.00;;;3.50;;
4521;SDS011;2273;48.464;11.926;2022-07-29T01:31:43;4.97;;;4.00;;
4521;SDS011;2273;48.464;11.926;2022-07-29T01:34:16;5.60;;;3.77;;
4521;SDS011;2273;48.464;11.926;2022-07-29T01:36:59;5.20;;;3.40;;
4521;SDS011;2273;48.464;11.926;2022-07-29T01:39:31;4.53;;;3.37;;
4521;SDS011;2273;48.464;11.926;2022-07-29T01:42:05;5.50;;;4.37;;
4521;SDS011;2273;48.464;11.926;2022-07-29T01:44:37;6.80;;;3.63;;
4521;SDS011;2273;48.464;11.926;2022-07-29T01:47:17;5.03;;;3.40;;
4521;SDS011;2273;48.464;11.926;2022-07-29T01:49:46;5.13;;;3.70;;
4521;SDS011;2273;48.464;11.926;2022-07-29T01:52:23;4.60;;;3.47;;
4521;SDS011;2273;48.464;11.926;2022-07-29T01:54:54;4.00;;;3.60;;
4521;SDS011;2273;48.464;11.926;2022-07-29T01:57:23;5.80;;;3.50;;
4521;SDS011;2273;48.464;11.926;2022-07-29T01:59:51;14.03;;;4.07;;
4521;SDS011;2273;48.464;11.926;2022-07-29T02:02:17;8.43;;;4.20;;
4521;SDS011;2273;48.464;11.926;2022-07-29T02:04:44;4.90;;;3.70;;
4521;SDS011;2273;48.464;11.926;2022-07-29T02:07:13;6.13;;;4.17;;
4521;SDS011;2273;48.464;11.926;2022-07-29T02:09:42;5.40;;;3.70;;
4521;SDS011;2273;48.464;11.926;2022-07-29T02:12:08;10.77;;;3.37;;
4521;SDS011;2273;48.464;11.926;2022-07-29T02:14:37;6.10;;;3.37;;
4521;SDS011;2273;48.464;11.926;2022-07-29T02:17:04;3.40;;;3.10;;
4521;SDS011;2273;48.464;11.926;2022-07-29T02:19:31;4.73;;;3.60;;
4521;SDS011;2273;48.464;11.926;2022-07-29T02:21:57;12.33;;;3.67;;
4521;SDS011;2273;48.464;11.926;2022-07-29T02:24:24;4.30;;;2.97;;
4521;SDS011;2273;48.464;11.926;2022-07-29T02:26:51;4.90;;;2.80;;
4521;SDS011;2273;48.464;11.926;2022-07-29T02:29:19;4.67;;;2.60;;
4521;SDS011;2273;48.464;11.926;2022-07-29T02:31:47;3.43;;;2.90;;
4521;SDS011;2273;48.464;11.926;2022-07-29T02:34:14;6.23;;;3.10;;
4521;SDS011;2273;48.464;11.926;2022-07-29T02:36:40;7.20;;;3.00;;
4521;SDS011;2273;48.464;11.926;2022-07-29T02:39:07;3.87;;;2.93;;
4521;SDS011;2273;48.464;11.926;2022-07-29T02:41:35;6.10;;;2.63;;
4521;SDS011;2273;48.464;11.926;2022-07-29T02:44:12;3.40;;;2.40;;
4521;SDS011;2273;48.464;11.926;2022-07-29T02:46:45;5.73;;;2.40;;
4521;SDS011;2273;48.464;11.926;2022-07-29T02:49:40;4.13;;;2.80;;
4521;SDS011;2273;48.464;11.926;2022-07-29T02:52:16;3.83;;;2.73;;
4521;SDS011;2273;48.464;11.926;2022-07-29T02:57:41;3.40;;;2.77;;
4521;SDS011;2273;48.464;11.926;2022-07-29T03:00:08;4.17;;;3.20;;
4521;SDS011;2273;48.464;11.926;2022-07-29T03:02:36;3.67;;;3.00;;
4521;SDS011;2273;48.464;11.926;2022-07-29T03:05:04;3.90;;;2.77;;
4521;SDS011;2273;48.464;11.926;2022-07-29T03:07:31;3.33;;;2.50;;
4521;SDS011;2273;48.464;11.926;2022-07-29T03:09:58;3.70;;;2.80;;
4521;SDS011;2273;48.464;11.926;2022-07-29T03:12:24;6.13;;;3.27;;
4521;SDS011;2273;48.464;11.926;2022-07-29T03:14:50;5.20;;;2.60;;
4521;SDS011;2273;48.464;11.926;2022-07-29T03:17:16;3.40;;;2.60;;
4521;SDS011;2273;48.464;11.926;2022-07-29T03:19:41;5.47;;;3.33;;
4521;SDS011;2273;48.464;11.926;2022-07-29T03:22:07;6.87;;;2.73;;
4521;SDS011;2273;48.464;11.926;2022-07-29T03:24:34;3.43;;;2.90;;
4521;SDS011;2273;48.464;11.926;2022-07-29T03:27:00;3.43;;;3.03;;
4521;SDS011;2273;48.464;11.926;2022-07-29T03:29:27;3.23;;;2.47;;
4521;SDS011;2273;48.464;11.926;2022-07-29T03:31:53;3.83;;;2.43;;
4521;SDS011;2273;48.464;11.926;2022-07-29T03:34:19;5.57;;;2.70;;
4521;SDS011;2273;48.464;11.926;2022-07-29T03:36:44;4.57;;;2.40;;
4521;SDS011;2273;48.464;11.926;2022-07-29T03:39:10;3.40;;;2.57;;
4521;SDS011;2273;48.464;11.926;2022-07-29T03:41:38;14.13;;;2.80;;
4521;SDS011;2273;48.464;11.926;2022-07-29T03:44:05;4.63;;;3.10;;
4521;SDS011;2273;48.464;11.926;2022-07-29T03:46:31;3.43;;;2.97;;
4521;SDS011;2273;48.464;11.926;2022-07-29T03:48:59;9.10;;;2.67;;
4521;SDS011;2273;48.464;11.926;2022-07-29T03:51:26;5.93;;;2.83;;
4521;SDS011;2273;48.464;11.926;2022-07-29T03:53:52;7.83;;;2.73;;
4521;SDS011;2273;48.464;11.926;2022-07-29T03:56:17;2.60;;;2.20;;
4521;SDS011;2273;48.464;11.926;2022-07-29T03:58:47;3.53;;;2.77;;
4521;SDS011;2273;48.464;11.926;2022-07-29T04:01:14;4.00;;;3.17;;
4521;SDS011;2273;48.464;11.926;2022-07-29T04:03:40;3.10;;;2.43;;
4521;SDS011;2273;48.464;11.926;2022-07-29T04:06:06;5.10;;;3.13;;
4521;SDS011;2273;48.464;11.926;2022-07-29T04:08:34;4.57;;;2.80;;
4521;SDS011;2273;48.464;11.926;2022-07-29T04:11:00;5.60;;;2.80;;
4521;SDS011;2273;48.464;11.926;2022-07-29T04:13:26;6.90;;;3.20;;
4521;SDS011;2273;48.464;11.926;2022-07-29T04:15:52;5.70;;;2.63;;
4521;SDS011;2273;48.464;11.926;2022-07-29T04:18:17;3.60;;;2.90;;
4521;SDS011;2273;48.464;11.926;2022-07-29T04:20:43;3.80;;;2.93;;
4521;SDS011;2273;48.464;11.926;2022-07-29T04:23:09;4.33;;;3.40;;
4521;SDS011;2273;48.464;11.926;2022-07-29T04:25:38;4.30;;;3.03;;
4521;SDS011;2273;48.464;11.926;2022-07-29T04:28:04;13.07;;;3.13;;
4521;SDS011;2273;48.464;11.926;2022-07-29T04:30:31;4.40;;;2.50;;
4521;SDS011;2273;48.464;11.926;2022-07-29T04:32:58;3.60;;;2.60;;
4521;SDS011;2273;48.464;11.926;2022-07-29T04:35:25;3.57;;;3.10;;
4521;SDS011;2273;48.464;11.926;2022-07-29T04:37:51;3.53;;;2.93;;
4521;SDS011;2273;48.464;11.926;2022-07-29T04:40:17;3.03;;;2.70;;
4521;SDS011;2273;48.464;11.926;2022-07-29T04:42:42;14.70;;;3.43;;
4521;SDS011;2273;48.464;11.926;2022-07-29T04:45:08;4.20;;;3.23;;
4521;SDS011;2273;48.464;11.926;2022-07-29T04:47:33;5.33;;;3.20;;
4521;SDS011;2273;48.464;11.926;2022-07-29T04:49:59;4.67;;;3.13;;
4521;SDS011;2273;48.464;11.926;2022-07-29T04:52:24;4.20;;;2.83;;
4521;SDS011;2273;48.464;11.926;2022-07-29T04:54:50;4.63;;;3.43;;
4521;SDS011;2273;48.464;11.926;2022-07-29T04:57:15;10.80;;;2.80;;
4521;SDS011;2273;48.464;11.926;2022-07-29T04:59:41;4.87;;;3.20;;
4521;SDS011;2273;48.464;11.926;2022-07-29T05:02:06;7.40;;;2.90;;
4521;SDS011;2273;48.464;11.926;2022-07-29T05:04:32;3.33;;;2.90;;
4521;SDS011;2273;48.464;11.926;2022-07-29T05:06:57;7.93;;;3.73;;
4521;SDS011;2273;48.464;11.926;2022-07-29T05:09:22;4.10;;;3.07;;
4521;SDS011;2273;48.464;11.926;2022-07-29T05:11:48;7.30;;;2.93;;
4521;SDS011;2273;48.464;11.926;2022-07-29T05:14:13;5.83;;;2.90;;
4521;SDS011;2273;48.464;11.926;2022-07-29T05:16:39;3.57;;;3.10;;
4521;SDS011;2273;48.464;11.926;2022-07-29T05:19:05;3.13;;;2.80;;
4521;SDS011;2273;48.464;11.926;2022-07-29T05:21:31;4.10;;;2.87;;
4521;SDS011;2273;48.464;11.926;2022-07-29T05:23:56;4.30;;;3.23;;
4521;SDS011;2273;48.464;11.926;2022-07-29T05:26:22;4.07;;;2.90;;
4521;SDS011;2273;48.464;11.926;2022-07-29T05:28:47;4.40;;;3.10;;
4521;SDS011;2273;48.464;11.926;2022-07-29T05:31:13;6.30;;;4.00;;
4521;SDS011;2273;48.464;11.926;2022-07-29T05:33:40;4.40;;;3.43;;
4521;SDS011;2273;48.464;11.926;2022-07-29T05:36:06;5.20;;;4.13;;
4521;SDS011;2273;48.464;11.926;2022-07-29T05:38:32;6.30;;;3.67;;
4521;SDS011;2273;48.464;11.926;2022-07-29T05:40:58;8.93;;;4.23;;
4521;SDS011;2273;48.464;11.926;2022-07-29T05:43:25;4.60;;;4.00;;
4521;SDS011;2273;48.464;11.926;2022-07-29T05:45:51;5.43;;;3.90;;
4521;SDS011;2273;48.464;11.926;2022-07-29T05:48:16;6.27;;;4.10;;
4521;SDS011;2273;48.464;11.926;2022-07-29T05:50:42;5.50;;;3.60;;
4521;SDS011;2273;48.464;11.926;2022-07-29T05:53:13;5.73;;;3.97;;
4521;SDS011;2273;48.464;11.926;2022-07-29T05:55:38;5.90;;;4.10;;
4521;SDS011;2273;48.464;11.926;2022-07-29T05:58:03;4.50;;;3.53;;
4521;SDS011;2273;48.464;11.926;2022-07-29T06:00:29;4.33;;;3.50;;
4521;SDS011;2273;48.464;11.926;2022-07-29T06:02:55;4.10;;;3.40;;
4521;SDS011;2273;48.464;11.926;2022-07-29T06:05:22;3.83;;;3.30;;
4521;SDS011;2273;48.464;11.926;2022-07-29T06:07:47;6.17;;;3.70;;
4521;SDS011;2273;48.464;11.926;2022-07-29T06:10:13;6.70;;;3.57;;
4521;SDS011;2273;48.464;11.926;2022-07-29T06:12:38;4.60;;;3.27;;
4521;SDS011;2273;48.464;11.926;2022-07-29T06:15:04;3.43;;;2.80;;
4521;SDS011;2273;48.464;11.926;2022-07-29T06:17:30;4.63;;;3.00;;
4521;SDS011;2273;48.464;11.926;2022-07-29T06:19:55;5.13;;;3.03;;
4521;SDS011;2273;48.464;11.926;2022-07-29T06:22:20;6.63;;;3.80;;
4521;SDS011;2273;48.464;11.926;2022-07-29T06:24:46;6.33;;;3.20;;
4521;SDS011;2273;48.464;11.926;2022-07-29T06:27:11;9.20;;;3.10;;
4521;SDS011;2273;48.464;11.926;2022-07-29T06:29:37;6.70;;;3.20;;
4521;SDS011;2273;48.464;11.926;2022-07-29T06:32:03;4.23;;;3.20;;
4521;SDS011;2273;48.464;11.926;2022-07-29T06:34:29;6.37;;;3.30;;
4521;SDS011;2273;48.464;11.926;2022-07-29T06:36:54;5.13;;;2.90;;
4521;SDS011;2273;48.464;11.926;2022-07-29T06:39:20;7.30;;;3.30;;
4521;SDS011;2273;48.464;11.926;2022-07-29T06:41:48;3.23;;;2.60;;
4521;SDS011;2273;48.464;11.926;2022-07-29T06:44:15;4.57;;;3.00;;
4521;SDS011;2273;48.464;11.926;2022-07-29T06:46:41;5.43;;;3.00;;
4521;SDS011;2273;48.464;11.926;2022-07-29T06:49:06;3.97;;;2.60;;
4521;SDS011;2273;48.464;11.926;2022-07-29T06:51:32;3.20;;;2.77;;
4521;SDS011;2273;48.464;11.926;2022-07-29T06:53:58;4.30;;;2.63;;
4521;SDS011;2273;48.464;11.926;2022-07-29T06:56:23;4.50;;;2.70;;
4521;SDS011;2273;48.464;11.926;2022-07-29T06:58:49;4.43;;;2.80;;
4521;SDS011;2273;48.464;11.926;2022-07-29T07:01:15;3.93;;;2.80;;
4521;SDS011;2273;48.464;11.926;2022-07-29T07:03:40;3.77;;;2.60;;
4521;SDS011;2273;48.464;11.926;2022-07-29T07:06:06;3.10;;;2.80;;
4521;SDS011;2273;48.464;11.926;2022-07-29T07:08:32;12.93;;;3.03;;
4521;SDS011;2273;48.464;11.926;2022-07-29T07:10:58;4.13;;;2.60;;
4521;SDS011;2273;48.464;11.926;2022-07-29T07:13:23;3.00;;;2.70;;
4521;SDS011;2273;48.464;11.926;2022-07-29T07:15:49;3.13;;;2.63;;
4521;SDS011;2273;48.464;11.926;2022-07-29T07:18:15;5.37;;;2.80;;
4521;SDS011;2273;48.464;11.926;2022-07-29T07:20:41;5.70;;;2.50;;
4521;SDS011;2273;48.464;11.926;2022-07-29T07:23:07;2.90;;;2.30;;
4521;SDS011;2273;48.464;11.926;2022-07-29T07:25:33;2.90;;;2.13;;
4521;SDS011;2273;48.464;11.926;2022-07-29T07:27:59;4.10;;;1.90;;
4521;SDS011;2273;48.464;11.926;2022-07-29T07:30:24;4.67;;;2.30;;
4521;SDS011;2273;48.464;11.926;2022-07-29T07:32:50;2.23;;;1.90;;
4521;SDS011;2273;48.464;11.926;2022-07-29T07:35:16;4.07;;;2.10;;
4521;SDS011;2273;48.464;11.926;2022-07-29T07:37:41;2.30;;;1.80;;
4521;SDS011;2273;48.464;11.926;2022-07-29T07:40:07;4.67;;;2.10;;
4521;SDS011;2273;48.464;11.926;2022-07-29T07:42:34;3.50;;;2.30;;
4521;SDS011;2273;48.464;11.926;2022-07-29T07:44:59;4.53;;;2.07;;
4521;SDS011;2273;48.464;11.926;2022-07-29T07:47:25;2.60;;;2.20;;
4521;SDS011;2273;48.464;11.926;2022-07-29T07:49:51;3.30;;;2.17;;
4521;SDS011;2273;48.464;11.926;2022-07-29T07:52:18;3.97;;;2.40;;
4521;SDS011;2273;48.464;11.926;2022-07-29T07:54:45;2.37;;;2.10;;
4521;SDS011;2273;48.464;11.926;2022-07-29T07:57:11;2.67;;;2.10;;
4521;SDS011;2273;48.464;11.926;2022-07-29T07:59:37;4.53;;;2.30;;
4521;SDS011;2273;48.464;11.926;2022-07-29T08:02:03;8.60;;;2.10;;
4521;SDS011;2273;48.464;11.926;2022-07-29T08:04:28;2.50;;;2.13;;
4521;SDS011;2273;48.464;11.926;2022-07-29T08:06:54;4.70;;;2.23;;
4521;SDS011;2273;48.464;11.926;2022-07-29T08:09:21;2.43;;;2.03;;
4521;SDS011;2273;48.464;11.926;2022-07-29T08:11:46;3.17;;;2.13;;
4521;SDS011;2273;48.464;11.926;2022-07-29T08:14:12;6.20;;;2.10;;
4521;SDS011;2273;48.464;11.926;2022-07-29T08:16:39;2.40;;;2.00;;
4521;SDS011;2273;48.464;11.926;2022-07-29T08:19:05;3.53;;;2.33;;
4521;SDS011;2273;48.464;11.926;2022-07-29T08:21:31;6.30;;;1.97;;
4521;SDS011;2273;48.464;11.926;2022-07-29T08:23:56;4.53;;;1.87;;
4521;SDS011;2273;48.464;11.926;2022-07-29T08:26:41;7.33;;;2.00;;
4521;SDS011;2273;48.464;11.926;2022-07-29T08:29:07;5.00;;;2.80;;
4521;SDS011;2273;48.464;11.926;2022-07-29T08:31:32;2.83;;;2.13;;
4521;SDS011;2273;48.464;11.926;2022-07-29T08:33:58;5.80;;;2.13;;
4521;SDS011;2273;48.464;11.926;2022-07-29T08:36:25;5.30;;;2.20;;
4521;SDS011;2273;48.464;11.926;2022-07-29T08:38:50;2.20;;;1.97;;
4521;SDS011;2273;48.464;11.926;2022-07-29T08:41:16;2.77;;;2.17;;
4521;SDS011;2273;48.464;11.926;2022-07-29T08:43:44;2.70;;;1.93;;
4521;SDS011;2273;48.464;11.926;2022-07-29T08:46:09;2.80;;;1.83;;
4521;SDS011;2273;48.464;11.926;2022-07-29T08:48:35;2.00;;;1.80;;
4521;SDS011;2273;48.464;11.926;2022-07-29T08:51:01;3.03;;;2.10;;
4521;SDS011;2273;48.464;11.926;2022-07-29T08:53:26;3.80;;;2.10;;
4521;SDS011;2273;48.464;11.926;2022-07-29T08:55:53;7.13;;;2.00;;
4521;SDS011;2273;48.464;11.926;2022-07-29T08:58:19;10.80;;;2.20;;
4521;SDS011;2273;48.464;11.926;2022-07-29T09:00:47;3.27;;;1.67;;
4521;SDS011;2273;48.464;11.926;2022-07-29T09:03:20;3.30;;;1.83;;
4521;SDS011;2273;48.464;11.926;2022-07-29T09:05:48;4.13;;;2.50;;
4521;SDS011;2273;48.464;11.926;2022-07-29T09:08:17;3.57;;;2.00;;
4521;SDS011;2273;48.464;11.926;2022-07-29T09:10:43;2.20;;;1.73;;
4521;SDS011;2273;48.464;11.926;2022-07-29T09:13:09;5.63;;;1.80;;
4521;SDS011;2273;48.464;11.926;2022-07-29T09:15:35;3.97;;;1.90;;
4521;SDS011;2273;48.464;11.926;2022-07-29T09:18:00;3.77;;;2.07;;
4521;SDS011;2273;48.464;11.926;2022-07-29T09:20:27;2.80;;;1.90;;
4521;SDS011;2273;48.464;11.926;2022-07-29T09:23:13;2.03;;;1.77;;
4521;SDS011;2273;48.464;11.926;2022-07-29T09:25:39;2.47;;;1.73;;
4521;SDS011;2273;48.464;11.926;2022-07-29T09:28:16;2.00;;;1.80;;
4521;SDS011;2273;48.464;11.926;2022-07-29T09:30:56;8.50;;;2.23;;
4521;SDS011;2273;48.464;11.926;2022-07-29T09:33:23;3.10;;;1.83;;
4521;SDS011;2273;48.464;11.926;2022-07-29T09:36:14;2.30;;;1.87;;
4521;SDS011;2273;48.464;11.926;2022-07-29T09:38:39;2.97;;;1.90;;
4521;SDS011;2273;48.464;11.926;2022-07-29T09:41:05;3.87;;;1.80;;
4521;SDS011;2273;48.464;11.926;2022-07-29T09:43:33;3.00;;;1.90;;
4521;SDS011;2273;48.464;11.926;2022-07-29T09:46:11;3.47;;;1.70;;
4521;SDS011;2273;48.464;11.926;2022-07-29T09:48:37;2.80;;;2.00;;
4521;SDS011;2273;48.464;11.926;2022-07-29T09:51:03;5.10;;;1.97;;
4521;SDS011;2273;48.464;11.926;2022-07-29T09:53:37;2.50;;;2.00;;
4521;SDS011;2273;48.464;11.926;2022-07-29T09:56:03;7.70;;;1.90;;
4521;SDS011;2273;48.464;11.926;2022-07-29T09:58:29;2.50;;;2.00;;
4521;SDS011;2273;48.464;11.926;2022-07-29T10:00:56;3.43;;;1.90;;
4521;SDS011;2273;48.464;11.926;2022-07-29T10:03:23;2.90;;;1.73;;
4521;SDS011;2273;48.464;11.926;2022-07-29T10:06:05;5.43;;;1.97;;
4521;SDS011;2273;48.464;11.926;2022-07-29T10:08:30;4.83;;;2.10;;
4521;SDS011;2273;48.464;11.926;2022-07-29T10:11:08;2.47;;;1.80;;
4521;SDS011;2273;48.464;11.926;2022-07-29T10:13:37;3.97;;;1.53;;
4521;SDS011;2273;48.464;11.926;2022-07-29T10:16:04;2.30;;;2.03;;
4521;SDS011;2273;48.464;11.926;2022-07-29T10:18:29;2.27;;;2.07;;
4521;SDS011;2273;48.464;11.926;2022-07-29T10:20:55;4.93;;;2.37;;
4521;SDS011;2273;48.464;11.926;2022-07-29T10:23:21;5.40;;;2.13;;
4521;SDS011;2273;48.464;11.926;2022-07-29T10:25:46;5.57;;;2.20;;
4521;SDS011;2273;48.464;11.926;2022-07-29T10:28:12;3.37;;;2.60;;
4521;SDS011;2273;48.464;11.926;2022-07-29T10:30:37;3.03;;;1.90;;
4521;SDS011;2273;48.464;11.926;2022-07-29T10:35:57;3.47;;;2.13;;
4521;SDS011;2273;48.464;11.926;2022-07-29T10:38:34;10.30;;;3.27;;
4521;SDS011;2273;48.464;11.926;2022-07-29T10:44:01;2.53;;;2.07;;
4521;SDS011;2273;48.464;11.926;2022-07-29T10:46:38;2.63;;;1.90;;
4521;SDS011;2273;48.464;11.926;2022-07-29T10:51:52;4.07;;;2.40;;
4521;SDS011;2273;48.464;11.926;2022-07-29T10:54:18;7.53;;;2.27;;
4521;SDS011;2273;48.464;11.926;2022-07-29T10:59:50;6.83;;;2.00;;
4521;SDS011;2273;48.464;11.926;2022-07-29T11:07:37;4.60;;;2.00;;
4521;SDS011;2273;48.464;11.926;2022-07-29T11:18:16;4.43;;;2.00;;
4521;SDS011;2273;48.464;11.926;2022-07-29T11:26:27;2.83;;;2.03;;
4521;SDS011;2273;48.464;11.926;2022-07-29T11:31:16;2.77;;;2.10;;
4521;SDS011;2273;48.464;11.926;2022-07-29T11:33:42;4.83;;;2.20;;
4521;SDS011;2273;48.464;11.926;2022-07-29T11:38:34;2.13;;;2.03;;
4521;SDS011;2273;48.464;11.926;2022-07-29T11:49:24;2.43;;;2.23;;
4521;SDS011;2273;48.464;11.926;2022-07-29T11:51:53;2.93;;;2.33;;
4521;SDS011;2273;48.464;11.926;2022-07-29T11:54:24;2.50;;;1.90;;
4521;SDS011;2273;48.464;11.926;2022-07-29T11:56:57;5.97;;;2.17;;
4521;SDS011;2273;48.464;11.926;2022-07-29T11:59:23;7.47;;;2.40;;
4521;SDS011;2273;48.464;11.926;2022-07-29T12:01:53;2.97;;;2.27;;
4521;SDS011;2273;48.464;11.926;2022-07-29T12:04:22;3.73;;;2.07;;
4521;SDS011;2273;48.464;11.926;2022-07-29T12:06:49;4.47;;;2.43;;
4521;SDS011;2273;48.464;11.926;2022-07-29T12:09:16;5.90;;;3.27;;
4521;SDS011;2273;48.464;11.926;2022-07-29T12:11:42;3.47;;;2.10;;
4521;SDS011;2273;48.464;11.926;2022-07-29T12:14:08;3.40;;;2.20;;
4521;SDS011;2273;48.464;11.926;2022-07-29T12:16:34;3.17;;;2.20;;
4521;SDS011;2273;48.464;11.926;2022-07-29T12:19:01;3.27;;;2.40;;
4521;SDS011;2273;48.464;11.926;2022-07-29T12:21:42;5.13;;;2.37;;
4521;SDS011;2273;48.464;11.926;2022-07-29T12:24:15;4.03;;;2.30;;
4521;SDS011;2273;48.464;11.926;2022-07-29T12:26:51;3.00;;;2.50;;
4521;SDS011;2273;48.464;11.926;2022-07-29T12:29:18;5.13;;;2.20;;
4521;SDS011;2273;48.464;11.926;2022-07-29T12:31:44;2.87;;;2.47;;
4521;SDS011;2273;48.464;11.926;2022-07-29T12:34:13;3.03;;;2.50;;
4521;SDS011;2273;48.464;11.926;2022-07-29T12:36:41;4.40;;;2.43;;
4521;SDS011;2273;48.464;11.926;2022-07-29T12:39:07;2.50;;;2.30;;
4521;SDS011;2273;48.464;11.926;2022-07-29T12:41:34;3.70;;;2.07;;
4521;SDS011;2273;48.464;11.926;2022-07-29T12:43:59;5.53;;;2.50;;
4521;SDS011;2273;48.464;11.926;2022-07-29T12:46:25;3.23;;;2.37;;
4521;SDS011;2273;48.464;11.926;2022-07-29T12:48:51;3.73;;;2.53;;
4521;SDS011;2273;48.464;11.926;2022-07-29T12:56:28;10.47;;;2.70;;
4521;SDS011;2273;48.464;11.926;2022-07-29T12:58:53;2.93;;;2.50;;
4521;SDS011;2273;48.464;11.926;2022-07-29T13:01:21;3.93;;;2.40;;
4521;SDS011;2273;48.464;11.926;2022-07-29T13:03:56;3.13;;;2.63;;
4521;SDS011;2273;48.464;11.926;2022-07-29T13:11:37;6.53;;;2.37;;
4521;SDS011;2273;48.464;11.926;2022-07-29T13:14:04;2.27;;;2.03;;
4521;SDS011;2273;48.464;11.926;2022-07-29T13:16:31;3.80;;;2.03;;
4521;SDS011;2273;48.464;11.926;2022-07-29T13:19:03;5.70;;;2.37;;
4521;SDS011;2273;48.464;11.926;2022-07-29T13:21:30;4.60;;;2.43;;
4521;SDS011;2273;48.464;11.926;2022-07-29T13:23:55;5.27;;;2.60;;
4521;SDS011;2273;48.464;11.926;2022-07-29T13:26:21;2.00;;;1.83;;
4521;SDS011;2273;48.464;11.926;2022-07-29T13:28:46;4.50;;;2.03;;
4521;SDS011;2273;48.464;11.926;2022-07-29T13:31:11;3.80;;;2.30;;
4521;SDS011;2273;48.464;11.926;2022-07-29T13:33:37;4.90;;;2.10;;
4521;SDS011;2273;48.464;11.926;2022-07-29T13:36:02;6.93;;;2.33;;
4521;SDS011;2273;48.464;11.926;2022-07-29T13:38:28;7.87;;;2.43;;
4521;SDS011;2273;48.464;11.926;2022-07-29T13:40:53;5.53;;;2.40;;
4521;SDS011;2273;48.464;11.926;2022-07-29T13:43:19;7.03;;;2.47;;
4521;SDS011;2273;48.464;11.926;2022-07-29T13:45:44;5.13;;;2.40;;
4521;SDS011;2273;48.464;11.926;2022-07-29T13:48:10;5.40;;;2.43;;
4521;SDS011;2273;48.464;11.926;2022-07-29T13:50:36;3.50;;;2.30;;
4521;SDS011;2273;48.464;11.926;2022-07-29T13:53:01;2.43;;;2.23;;
4521;SDS011;2273;48.464;11.926;2022-07-29T13:55:27;2.47;;;2.27;;
4521;SDS011;2273;48.464;11.926;2022-07-29T13:57:52;4.53;;;2.27;;
4521;SDS011;2273;48.464;11.926;2022-07-29T14:00:18;2.00;;;1.77;;
4521;SDS011;2273;48.464;11.926;2022-07-29T14:02:44;6.30;;;2.27;;
4521;SDS011;2273;48.464;11.926;2022-07-29T14:05:09;4.57;;;2.30;;
4521;SDS011;2273;48.464;11.926;2022-07-29T14:07:36;3.87;;;2.07;;
4521;SDS011;2273;48.464;11.926;2022-07-29T14:10:03;3.43;;;2.50;;
4521;SDS011;2273;48.464;11.926;2022-07-29T14:12:29;6.77;;;1.90;;
4521;SDS011;2273;48.464;11.926;2022-07-29T14:14:56;2.57;;;1.70;;
4521;SDS011;2273;48.464;11.926;2022-07-29T14:17:21;8.40;;;2.53;;
4521;SDS011;2273;48.464;11.926;2022-07-29T14:19:47;3.03;;;2.07;;
4521;SDS011;2273;48.464;11.926;2022-07-29T14:22:13;4.70;;;2.30;;
4521;SDS011;2273;48.464;11.926;2022-07-29T14:24:38;20.83;;;2.70;;
4521;SDS011;2273;48.464;11.926;2022-07-29T14:27:04;2.77;;;2.53;;
4521;SDS011;2273;48.464;11.926;2022-07-29T14:29:31;4.00;;;2.30;;
4521;SDS011;2273;48.464;11.926;2022-07-29T14:31:56;7.87;;;2.53;;
4521;SDS011;2273;48.464;11.926;2022-07-29T14:34:22;6.27;;;2.60;;
4521;SDS011;2273;48.464;11.926;2022-07-29T14:36:49;2.10;;;1.90;;
4521;SDS011;2273;48.464;11.926;2022-07-29T14:39:14;4.47;;;2.43;;
4521;SDS011;2273;48.464;11.926;2022-07-29T14:41:41;4.53;;;2.27;;
4521;SDS011;2273;48.464;11.926;2022-07-29T14:44:07;6.50;;;2.80;;
4521;SDS011;2273;48.464;11.926;2022-07-29T14:46:32;10.60;;;2.57;;
4521;SDS011;2273;48.464;11.926;2022-07-29T14:48:58;8.07;;;2.60;;
4521;SDS011;2273;48.464;11.926;2022-07-29T14:51:23;4.00;;;2.20;;
4521;SDS011;2273;48.464;11.926;2022-07-29T14:53:49;3.13;;;2.30;;
4521;SDS011;2273;48.464;11.926;2022-07-29T14:56:15;14.37;;;2.57;;
4521;SDS011;2273;48.464;11.926;2022-07-29T14:58:40;5.27;;;2.30;;
4521;SDS011;2273;48.464;11.926;2022-07-29T15:01:06;6.93;;;2.27;;
4521;SDS011;2273;48.464;11.926;2022-07-29T15:03:31;5.67;;;2.43;;
4521;SDS011;2273;48.464;11.926;2022-07-29T15:05:57;4.63;;;2.67;;
4521;SDS011;2273;48.464;11.926;2022-07-29T15:08:22;2.80;;;2.60;;
4521;SDS011;2273;48.464;11.926;2022-07-29T15:10:48;3.03;;;2.23;;
4521;SDS011;2273;48.464;11.926;2022-07-29T15:13:14;7.20;;;2.90;;
4521;SDS011;2273;48.464;11.926;2022-07-29T15:15:39;3.50;;;2.17;;
4521;SDS011;2273;48.464;11.926;2022-07-29T15:18:06;8.73;;;2.40;;
4521;SDS011;2273;48.464;11.926;2022-07-29T15:20:31;4.90;;;2.40;;
4521;SDS011;2273;48.464;11.926;2022-07-29T15:22:57;14.20;;;2.50;;
4521;SDS011;2273;48.464;11.926;2022-07-29T15:25:23;12.87;;;3.10;;
4521;SDS011;2273;48.464;11.926;2022-07-29T15:27:49;5.30;;;2.80;;
4521;SDS011;2273;48.464;11.926;2022-07-29T15:30:14;12.60;;;2.90;;
4521;SDS011;2273;48.464;11.926;2022-07-29T15:32:42;10.90;;;2.80;;
4521;SDS011;2273;48.464;11.926;2022-07-29T15:35:10;10.10;;;2.60;;
4521;SDS011;2273;48.464;11.926;2022-07-29T15:37:37;4.43;;;2.70;;
4521;SDS011;2273;48.464;11.926;2022-07-29T15:40:03;7.30;;;2.60;;
4521;SDS011;2273;48.464;11.926;2022-07-29T15:42:30;14.43;;;3.10;;
4521;SDS011;2273;48.464;11.926;2022-07-29T15:44:55;7.13;;;3.33;;
4521;SDS011;2273;48.464;11.926;2022-07-29T15:47:21;8.37;;;2.73;;
4521;SDS011;2273;48.464;11.926;2022-07-29T15:49:47;6.83;;;3.57;;
4521;SDS011;2273;48.464;11.926;2022-07-29T15:52:14;6.10;;;2.97;;
4521;SDS011;2273;48.464;11.926;2022-07-29T15:54:40;4.97;;;2.70;;
4521;SDS011;2273;48.464;11.926;2022-07-29T15:57:06;4.90;;;2.53;;
4521;SDS011;2273;48.464;11.926;2022-07-29T15:59:32;8.67;;;2.87;;
4521;SDS011;2273;48.464;11.926;2022-07-29T16:01:58;4.07;;;3.10;;
4521;SDS011;2273;48.464;11.926;2022-07-29T16:04:24;3.43;;;2.70;;